createdAt,value
2022-12-18T00:01:26.616Z,61.06
2022-12-18T00:03:55.732Z,61.29
2022-12-18T00:06:24.014Z,60.82
2022-12-18T00:08:51.873Z,61.00
2022-12-18T00:11:22.665Z,61.04
2022-12-18T00:13:50.232Z,61.11
2022-12-18T00:16:22.899Z,61.05
2022-12-18T00:18:55.783Z,60.72
2022-12-18T00:21:22.958Z,61.03
2022-12-18T00:23:51.264Z,61.12
2022-12-18T00:26:25.632Z,60.98
2022-12-18T00:28:52.884Z,60.84
2022-12-18T00:31:26.027Z,61.06
2022-12-18T00:33:56.630Z,60.80
2022-12-18T00:36:27.891Z,61.01
2022-12-18T00:38:56.853Z,60.73
2022-12-18T00:41:42.658Z,60.77
2022-12-18T00:44:12.743Z,60.84
2022-12-18T00:46:39.532Z,61.04
2022-12-18T00:49:07.701Z,60.96
2022-12-18T00:51:34.519Z,61.02
2022-12-18T00:54:01.580Z,60.65
2022-12-18T00:56:28.430Z,60.75
2022-12-18T00:58:55.247Z,60.81
2022-12-18T01:01:22.160Z,60.64
2022-12-18T01:03:49.249Z,60.50
2022-12-18T01:06:17.175Z,60.60
2022-12-18T01:08:44.591Z,60.55
2022-12-18T01:11:15.130Z,60.54
2022-12-18T01:13:42.189Z,60.57
2022-12-18T01:16:12.345Z,60.67
2022-12-18T01:18:39.293Z,60.94
2022-12-18T01:21:12.530Z,60.83
2022-12-18T01:23:39.703Z,60.84
2022-12-18T01:26:16.971Z,60.71
2022-12-18T01:28:44.982Z,60.61
2022-12-18T01:31:22.156Z,60.91
2022-12-18T01:33:49.350Z,61.01
2022-12-18T01:36:22.737Z,60.91
2022-12-18T01:38:50.880Z,60.68
2022-12-18T01:41:21.484Z,60.86
2022-12-18T01:43:53.706Z,60.85
2022-12-18T01:46:23.306Z,60.60
2022-12-18T01:48:57.990Z,60.65
2022-12-18T01:51:26.739Z,60.82
2022-12-18T01:53:53.624Z,60.76
2022-12-18T01:56:22.090Z,60.51
2022-12-18T01:59:05.884Z,60.49
2022-12-18T02:01:34.257Z,60.59
2022-12-18T02:04:20.873Z,60.55
2022-12-18T02:06:54.336Z,60.56
2022-12-18T02:10:02.413Z,60.50
2022-12-18T02:12:58.343Z,60.60
2022-12-18T02:15:56.743Z,60.82
2022-12-18T02:18:36.172Z,60.71
2022-12-18T02:21:45.647Z,60.50
2022-12-18T02:24:41.936Z,60.46
2022-12-18T02:27:10.840Z,60.72
2022-12-18T02:29:57.603Z,60.95
2022-12-18T02:32:58.618Z,60.83
2022-12-18T02:35:30.176Z,60.83
2022-12-18T02:37:58.591Z,60.39
2022-12-18T02:40:28.855Z,60.68
2022-12-18T02:42:55.945Z,60.38
2022-12-18T02:45:22.749Z,60.57
2022-12-18T02:47:51.356Z,60.54
2022-12-18T02:50:31.234Z,60.69
2022-12-18T02:53:21.496Z,60.69
2022-12-18T02:56:05.131Z,60.92
2022-12-18T02:58:53.446Z,60.76
2022-12-18T03:01:57.141Z,60.89
2022-12-18T03:04:32.035Z,60.70
2022-12-18T03:07:05.011Z,61.21
2022-12-18T03:09:43.857Z,61.15
2022-12-18T03:12:31.874Z,61.23
2022-12-18T03:15:22.656Z,61.28
2022-12-18T03:18:00.971Z,61.35
2022-12-18T03:20:31.169Z,61.50
2022-12-18T03:23:07.408Z,61.68
2022-12-18T03:25:39.440Z,61.35
2022-12-18T03:28:09.987Z,61.58
2022-12-18T03:30:40.512Z,61.90
2022-12-18T03:33:15.808Z,61.65
2022-12-18T03:35:44.145Z,61.78
2022-12-18T03:38:11.684Z,61.50
2022-12-18T03:40:43.999Z,62.02
2022-12-18T03:43:53.902Z,62.00
2022-12-18T03:46:30.957Z,62.25
2022-12-18T03:49:07.807Z,62.33
2022-12-18T03:52:00.896Z,62.10
2022-12-18T03:54:29.205Z,61.93
2022-12-18T03:57:08.161Z,62.25
2022-12-18T03:59:37.478Z,61.88
2022-12-18T04:02:07.644Z,62.01
2022-12-18T04:04:36.904Z,62.01
2022-12-18T04:07:04.362Z,62.12
2022-12-18T04:09:33.154Z,62.06
2022-12-18T04:11:59.901Z,61.88
2022-12-18T04:14:26.875Z,61.69
2022-12-18T04:16:53.648Z,61.70
2022-12-18T04:19:20.449Z,61.48
2022-12-18T04:21:47.242Z,61.43
2022-12-18T04:24:14.046Z,61.37
2022-12-18T04:26:40.847Z,61.11
2022-12-18T04:29:07.645Z,61.21
2022-12-18T04:31:34.496Z,61.38
2022-12-18T04:34:01.434Z,61.21
2022-12-18T04:36:28.411Z,61.08
2022-12-18T04:38:55.198Z,61.13
2022-12-18T04:41:22.029Z,61.08
2022-12-18T04:43:48.947Z,61.09
2022-12-18T04:46:15.825Z,61.12
2022-12-18T04:48:42.617Z,61.22
2022-12-18T04:51:09.456Z,61.25
2022-12-18T04:53:36.575Z,60.86
2022-12-18T04:56:09.966Z,60.74
2022-12-18T04:58:38.219Z,60.99
2022-12-18T05:01:05.785Z,60.72
2022-12-18T05:03:32.649Z,60.68
2022-12-18T05:05:59.478Z,60.85
2022-12-18T05:08:26.376Z,60.74
2022-12-18T05:11:04.375Z,60.80
2022-12-18T05:13:33.394Z,60.56
2022-12-18T05:16:00.513Z,60.61
2022-12-18T05:18:28.067Z,60.38
2022-12-18T05:20:55.798Z,60.38
2022-12-18T05:23:24.937Z,60.38
2022-12-18T05:25:56.855Z,60.62
2022-12-18T05:28:25.762Z,60.60
2022-12-18T05:30:55.609Z,60.80
2022-12-18T05:33:24.980Z,60.73
2022-12-18T05:35:53.836Z,60.95
2022-12-18T05:38:22.283Z,60.95
2022-12-18T05:40:50.586Z,60.80
2022-12-18T05:43:21.195Z,60.99
2022-12-18T05:45:49.268Z,61.14
2022-12-18T05:48:17.121Z,61.06
2022-12-18T05:50:46.901Z,60.38
2022-12-18T05:53:16.504Z,60.58
2022-12-18T05:55:44.660Z,60.75
2022-12-18T05:58:13.686Z,60.66
2022-12-18T06:00:46.416Z,60.67
2022-12-18T06:03:14.794Z,60.43
2022-12-18T06:05:45.543Z,60.56
2022-12-18T06:08:13.984Z,60.56
2022-12-18T06:10:42.048Z,60.08
2022-12-18T06:13:09.086Z,60.58
2022-12-18T06:15:38.454Z,60.54
2022-12-18T06:18:05.395Z,60.30
2022-12-18T06:20:33.815Z,60.23
2022-12-18T06:23:01.166Z,60.35
2022-12-18T06:25:28.021Z,60.47
2022-12-18T06:27:54.932Z,60.34
2022-12-18T06:30:21.783Z,60.26
2022-12-18T06:32:56.114Z,60.35
2022-12-18T06:35:23.995Z,60.32
2022-12-18T06:37:50.825Z,60.19
2022-12-18T06:40:17.696Z,60.39
2022-12-18T06:42:44.517Z,60.00
2022-12-18T06:45:12.327Z,60.42
2022-12-18T06:47:39.201Z,60.10
2022-12-18T06:50:06.675Z,60.32
2022-12-18T06:52:34.449Z,60.50
2022-12-18T06:55:01.785Z,60.09
2022-12-18T06:57:28.616Z,60.41
2022-12-18T06:59:55.548Z,60.24
2022-12-18T07:02:22.438Z,60.19
2022-12-18T07:04:49.313Z,59.95
2022-12-18T07:07:16.102Z,60.39
2022-12-18T07:09:43.043Z,60.30
2022-12-18T07:12:09.863Z,60.40
2022-12-18T07:14:36.630Z,60.11
2022-12-18T07:17:03.450Z,60.54
2022-12-18T07:19:30.758Z,60.40
2022-12-18T07:21:57.887Z,60.03
2022-12-18T07:24:24.650Z,60.04
2022-12-18T07:26:51.538Z,60.15
2022-12-18T07:29:18.441Z,60.38
2022-12-18T07:31:45.647Z,60.28
2022-12-18T07:34:14.521Z,60.18
2022-12-18T07:36:41.603Z,59.94
2022-12-18T07:39:08.680Z,60.07
2022-12-18T07:41:35.451Z,59.93
2022-12-18T07:44:02.309Z,60.26
2022-12-18T07:46:29.069Z,59.96
2022-12-18T07:48:55.823Z,60.40
2022-12-18T07:51:22.815Z,60.42
2022-12-18T07:53:51.806Z,60.39
2022-12-18T07:56:29.047Z,60.32
2022-12-18T07:58:57.348Z,60.63
2022-12-18T08:01:24.346Z,60.75
2022-12-18T08:03:52.472Z,60.90
2022-12-18T08:06:23.997Z,60.99
2022-12-18T08:08:56.344Z,61.32
2022-12-18T08:11:25.129Z,61.37
2022-12-18T08:13:52.176Z,61.51
2022-12-18T08:16:19.308Z,61.73
2022-12-18T08:18:46.872Z,61.91
2022-12-18T08:21:23.933Z,61.85
2022-12-18T08:23:52.850Z,62.04
2022-12-18T08:26:20.996Z,62.22
2022-12-18T08:28:48.308Z,62.12
2022-12-18T08:31:15.889Z,61.98
2022-12-18T08:33:43.717Z,62.41
2022-12-18T08:36:11.639Z,62.13
2022-12-18T08:38:38.504Z,62.31
2022-12-18T08:41:11.846Z,62.24
2022-12-18T08:43:57.513Z,62.02
2022-12-18T08:46:27.538Z,62.34
2022-12-18T08:48:56.810Z,62.66
2022-12-18T08:51:23.558Z,62.65
2022-12-18T08:53:50.459Z,62.63
2022-12-18T08:56:17.712Z,62.82
2022-12-18T08:58:44.911Z,62.70
2022-12-18T09:01:14.415Z,63.01
2022-12-18T09:03:41.728Z,63.22
2022-12-18T09:06:09.077Z,63.26
2022-12-18T09:08:37.716Z,63.50
2022-12-18T09:11:04.951Z,63.31
2022-12-18T09:13:31.722Z,63.43
2022-12-18T09:15:58.578Z,63.82
2022-12-18T09:18:25.940Z,63.53
2022-12-18T09:20:53.725Z,64.00
2022-12-18T09:23:21.631Z,63.71
2022-12-18T09:25:49.160Z,64.06
2022-12-18T09:28:19.263Z,64.03
2022-12-18T09:30:49.882Z,64.01
2022-12-18T09:33:17.970Z,63.99
2022-12-18T09:35:46.713Z,64.42
2022-12-18T09:38:19.638Z,63.95
2022-12-18T09:40:51.828Z,64.50
2022-12-18T09:43:28.889Z,64.05
2022-12-18T09:46:02.855Z,64.32
2022-12-18T09:48:38.370Z,64.43
2022-12-18T09:51:13.736Z,64.37
2022-12-18T09:53:46.478Z,64.81
2022-12-18T09:56:23.440Z,64.18
2022-12-18T09:58:59.493Z,64.03
2022-12-18T10:01:36.337Z,64.63
2022-12-18T10:04:10.506Z,64.39
2022-12-18T10:06:46.795Z,64.01
2022-12-18T10:09:28.433Z,63.94
2022-12-18T10:12:26.319Z,64.09
2022-12-18T10:15:11.441Z,64.27
2022-12-18T10:17:59.103Z,64.25
2022-12-18T10:20:38.520Z,64.03
2022-12-18T10:23:41.417Z,63.82
2022-12-18T10:26:15.384Z,64.15
2022-12-18T10:28:44.659Z,64.06
2022-12-18T10:31:25.486Z,64.26
2022-12-18T10:33:55.134Z,63.81
2022-12-18T10:36:25.557Z,64.09
2022-12-18T10:38:52.588Z,63.69
2022-12-18T10:41:23.020Z,63.59
2022-12-18T10:44:19.920Z,63.53
2022-12-18T10:46:50.063Z,63.98
2022-12-18T10:49:34.546Z,63.99
2022-12-18T10:52:25.556Z,63.73
2022-12-18T10:55:04.782Z,64.25
2022-12-18T10:57:42.359Z,63.53
2022-12-18T11:00:31.579Z,63.87
2022-12-18T11:02:59.172Z,63.53
2022-12-18T11:05:27.396Z,63.55
2022-12-18T11:07:55.232Z,63.46
2022-12-18T11:10:31.041Z,63.62
2022-12-18T11:13:21.273Z,63.32
2022-12-18T11:15:49.270Z,63.60
2022-12-18T11:18:37.224Z,63.17
2022-12-18T11:21:22.117Z,63.62
2022-12-18T11:23:54.162Z,63.10
2022-12-18T11:26:22.424Z,63.15
2022-12-18T11:28:53.768Z,63.51
2022-12-18T11:31:23.315Z,63.35
2022-12-18T11:36:49.131Z,63.36
2022-12-18T11:39:45.057Z,63.22
2022-12-18T11:42:48.126Z,63.27
2022-12-18T11:45:14.796Z,63.51
2022-12-18T11:48:18.006Z,63.14
2022-12-18T11:50:58.068Z,63.76
2022-12-18T11:53:27.645Z,63.57
2022-12-18T11:56:27.208Z,63.17
2022-12-18T11:59:36.421Z,63.74
2022-12-18T12:02:38.600Z,63.41
2022-12-18T12:05:27.006Z,63.43
2022-12-18T12:08:11.684Z,63.51
2022-12-18T12:10:56.374Z,63.30
2022-12-18T12:13:56.971Z,63.08
2022-12-18T12:16:38.789Z,63.31
2022-12-18T12:19:36.095Z,63.15
2022-12-18T12:22:24.583Z,63.20
2022-12-18T12:24:57.127Z,63.09
2022-12-18T12:28:06.421Z,63.35
2022-12-18T12:30:48.204Z,62.81
2022-12-18T12:33:44.740Z,62.86
2022-12-18T12:36:56.267Z,63.26
2022-12-18T12:39:40.586Z,63.12
2022-12-18T12:42:34.984Z,63.42
2022-12-18T12:45:06.342Z,63.41
2022-12-18T12:47:43.018Z,63.35
2022-12-18T12:50:22.121Z,63.07
2022-12-18T12:52:56.785Z,63.14
2022-12-18T12:55:27.950Z,63.09
2022-12-18T12:58:35.312Z,62.89
2022-12-18T13:01:35.850Z,62.95
2022-12-18T13:04:33.735Z,63.14
2022-12-18T13:07:27.963Z,63.26
2022-12-18T13:10:27.270Z,62.82
2022-12-18T13:12:56.473Z,62.87
2022-12-18T13:15:46.247Z,63.01
2022-12-18T13:18:25.044Z,62.80
2022-12-18T13:21:25.652Z,62.79
2022-12-18T13:23:52.676Z,63.29
2022-12-18T13:26:26.326Z,62.98
2022-12-18T13:28:57.467Z,63.17
2022-12-18T13:31:50.345Z,62.92
2022-12-18T13:34:31.037Z,63.30
2022-12-18T13:37:33.261Z,63.23
2022-12-18T13:40:00.097Z,63.48
2022-12-18T13:42:58.722Z,63.12
2022-12-18T13:45:40.125Z,63.15
2022-12-18T13:48:26.812Z,63.32
2022-12-18T13:51:03.001Z,63.06
2022-12-18T13:53:40.945Z,63.12
2022-12-18T13:56:08.207Z,63.38
2022-12-18T13:58:35.541Z,63.35
2022-12-18T14:01:05.469Z,63.23
2022-12-18T14:03:32.527Z,63.14
2022-12-18T14:06:08.009Z,63.18
2022-12-18T14:08:40.707Z,63.36
2022-12-18T14:11:20.579Z,63.10
2022-12-18T14:13:48.555Z,63.11
2022-12-18T14:16:17.813Z,63.46
2022-12-18T14:19:00.954Z,63.12
2022-12-18T14:21:39.395Z,63.19
2022-12-18T14:24:09.890Z,63.08
2022-12-18T14:26:36.675Z,63.14
2022-12-18T14:29:31.226Z,63.18
2022-12-18T14:32:13.336Z,63.66
2022-12-18T14:34:51.485Z,63.29
2022-12-18T14:37:24.072Z,63.43
2022-12-18T14:40:10.464Z,63.43
2022-12-18T14:42:38.178Z,63.46
2022-12-18T14:45:43.153Z,63.71
2022-12-18T14:48:23.687Z,63.60
2022-12-18T14:51:06.987Z,63.52
2022-12-18T14:53:40.747Z,63.71
2022-12-18T14:56:16.148Z,63.32
2022-12-18T14:58:53.132Z,63.89
2022-12-18T15:01:27.705Z,63.55
2022-12-18T15:03:56.310Z,63.46
2022-12-18T15:06:38.724Z,63.62
2022-12-18T15:09:24.639Z,63.77
2022-12-18T15:11:58.568Z,63.92
2022-12-18T15:14:32.970Z,63.86
2022-12-18T15:17:03.726Z,63.83
2022-12-18T15:19:43.844Z,63.78
2022-12-18T15:22:27.642Z,63.78
2022-12-18T15:24:56.504Z,64.00
2022-12-18T15:27:28.797Z,64.04
2022-12-18T15:30:10.787Z,63.90
2022-12-18T15:32:42.751Z,63.84
2022-12-18T15:35:19.816Z,63.79
2022-12-18T15:37:47.407Z,63.80
2022-12-18T15:40:21.219Z,63.74
2022-12-18T15:43:08.506Z,63.40
2022-12-18T15:45:35.344Z,63.86
2022-12-18T15:48:22.330Z,63.84
2022-12-18T15:50:53.926Z,63.91
2022-12-18T15:53:20.849Z,63.77
2022-12-18T15:56:05.997Z,63.48
2022-12-18T15:58:34.180Z,63.42
2022-12-18T16:01:01.869Z,63.48
2022-12-18T16:03:28.906Z,63.38
2022-12-18T16:05:55.748Z,63.78
2022-12-18T16:08:24.040Z,63.61
2022-12-18T16:10:50.803Z,63.63
2022-12-18T16:13:20.438Z,63.15
2022-12-18T16:15:47.395Z,63.30
2022-12-18T16:18:14.288Z,63.47
2022-12-18T16:20:41.528Z,63.50
2022-12-18T16:23:08.534Z,63.48
2022-12-18T16:25:35.425Z,63.33
2022-12-18T16:28:02.384Z,63.18
2022-12-18T16:30:35.442Z,63.67
2022-12-18T16:33:05.740Z,63.29
2022-12-18T16:35:34.701Z,63.21
2022-12-18T16:38:01.768Z,63.33
2022-12-18T16:40:28.619Z,63.53
2022-12-18T16:42:55.409Z,63.13
2022-12-18T16:45:22.222Z,63.03
2022-12-18T16:47:49.077Z,63.42
2022-12-18T16:50:16.034Z,63.09
2022-12-18T16:52:42.897Z,62.98
2022-12-18T16:55:09.928Z,63.29
2022-12-18T16:57:36.714Z,62.93
2022-12-18T17:00:06.173Z,63.29
2022-12-18T17:02:33.881Z,63.15
2022-12-18T17:05:01.358Z,63.31
2022-12-18T17:07:28.923Z,63.02
2022-12-18T17:09:56.141Z,63.48
2022-12-18T17:12:23.632Z,62.90
2022-12-18T17:14:50.612Z,63.16
2022-12-18T17:17:22.303Z,62.89
2022-12-18T17:19:52.161Z,63.23
2022-12-18T17:22:20.784Z,62.84
2022-12-18T17:24:47.985Z,63.02
2022-12-18T17:27:15.411Z,62.91
2022-12-18T17:29:47.208Z,63.02
2022-12-18T17:32:15.430Z,63.09
2022-12-18T17:34:42.228Z,63.19
2022-12-18T17:37:09.199Z,63.08
2022-12-18T17:39:36.063Z,62.91
2022-12-18T17:42:02.981Z,63.00
2022-12-18T17:44:29.787Z,62.46
2022-12-18T17:46:56.633Z,62.81
2022-12-18T17:49:23.542Z,62.54
2022-12-18T17:51:50.563Z,62.76
2022-12-18T17:54:17.582Z,62.50
2022-12-18T17:56:45.166Z,62.82
2022-12-18T17:59:12.433Z,62.67
2022-12-18T18:01:44.400Z,62.75
2022-12-18T18:04:12.991Z,62.59
2022-12-18T18:06:39.876Z,62.70
2022-12-18T18:09:15.947Z,62.34
2022-12-18T18:12:03.400Z,62.37
2022-12-18T18:14:30.355Z,62.66
2022-12-18T18:16:58.226Z,62.69
2022-12-18T18:19:30.920Z,62.16
2022-12-18T18:21:57.685Z,62.62
2022-12-18T18:24:25.673Z,62.58
2022-12-18T18:26:52.939Z,62.67
2022-12-18T18:29:23.601Z,62.16
2022-12-18T18:31:52.743Z,62.44
2022-12-18T18:34:23.161Z,62.35
2022-12-18T18:36:50.578Z,62.29
2022-12-18T18:39:18.382Z,62.20
2022-12-18T18:41:46.863Z,62.05
2022-12-18T18:44:20.586Z,62.31
2022-12-18T18:46:56.512Z,62.30
2022-12-18T18:49:26.984Z,62.24
2022-12-18T18:51:55.108Z,62.27
2022-12-18T18:54:22.130Z,62.44
2022-12-18T18:59:36.969Z,62.32
2022-12-18T19:02:04.216Z,62.28
2022-12-18T19:04:33.718Z,62.12
2022-12-18T19:07:00.792Z,62.09
2022-12-18T19:09:28.643Z,62.22
2022-12-18T19:12:14.893Z,62.23
2022-12-18T19:14:42.020Z,62.08
2022-12-18T19:17:09.228Z,62.06
2022-12-18T19:19:36.023Z,62.26
2022-12-18T19:22:03.356Z,62.09
2022-12-18T19:24:30.643Z,62.31
2022-12-18T19:26:58.180Z,62.00
2022-12-18T19:29:25.188Z,62.16
2022-12-18T19:31:52.020Z,61.77
2022-12-18T19:34:18.903Z,61.69
2022-12-18T19:36:46.484Z,62.04
2022-12-18T19:39:16.621Z,61.76
2022-12-18T19:41:44.427Z,61.80
2022-12-18T19:44:16.876Z,61.72
2022-12-18T19:46:46.090Z,61.59
2022-12-18T19:49:17.501Z,62.26
2022-12-18T19:51:45.405Z,61.81
2022-12-18T19:54:17.018Z,61.89
2022-12-18T19:56:44.368Z,61.67
2022-12-18T19:59:11.164Z,61.89
2022-12-18T20:01:38.166Z,61.46
2022-12-18T20:04:05.370Z,61.50
2022-12-18T20:06:47.600Z,61.77
2022-12-18T20:09:14.640Z,61.78
2022-12-18T20:11:42.355Z,62.09
2022-12-18T20:14:11.380Z,61.61
2022-12-18T20:16:38.712Z,61.54
2022-12-18T20:19:06.672Z,61.67
2022-12-18T20:21:34.192Z,61.89
2022-12-18T20:24:01.976Z,61.69
2022-12-18T20:26:29.234Z,61.62
2022-12-18T20:28:56.524Z,61.34
2022-12-18T20:31:24.315Z,61.75
2022-12-18T20:33:52.077Z,61.58
2022-12-18T20:36:22.405Z,61.67
2022-12-18T20:38:57.298Z,61.55
2022-12-18T20:41:31.028Z,61.51
2022-12-18T20:44:09.859Z,61.74
2022-12-18T20:47:07.457Z,61.71
2022-12-18T20:49:35.551Z,61.62
2022-12-18T20:52:05.935Z,61.76
2022-12-18T20:54:32.721Z,61.41
2022-12-18T20:56:59.502Z,61.50
2022-12-18T20:59:26.596Z,61.70
2022-12-18T21:01:54.899Z,61.60
2022-12-18T21:04:22.544Z,61.43
2022-12-18T21:06:57.828Z,61.54
2022-12-18T21:09:30.004Z,61.77
2022-12-18T21:12:34.059Z,61.45
2022-12-18T21:15:09.905Z,61.57
2022-12-18T21:17:44.173Z,61.61
2022-12-18T21:20:17.561Z,61.45
2022-12-18T21:22:45.439Z,61.57
2022-12-18T21:25:12.237Z,61.67
2022-12-18T21:27:38.997Z,61.58
2022-12-18T21:30:06.742Z,61.46
2022-12-18T21:32:33.840Z,61.45
2022-12-18T21:35:00.810Z,61.54
2022-12-18T21:37:27.598Z,60.97
2022-12-18T21:39:54.403Z,61.30
2022-12-18T21:42:39.538Z,61.49
2022-12-18T21:45:06.990Z,61.35
2022-12-18T21:47:33.883Z,61.85
2022-12-18T21:50:00.685Z,61.52
2022-12-18T21:52:31.546Z,61.47
2022-12-18T21:55:07.855Z,61.25
2022-12-18T21:57:35.970Z,61.39
2022-12-18T22:00:03.517Z,61.36
2022-12-18T22:02:30.599Z,61.51
2022-12-18T22:04:57.531Z,61.40
2022-12-18T22:07:24.464Z,61.16
2022-12-18T22:09:51.212Z,61.30
2022-12-18T22:12:35.355Z,60.93
2022-12-18T22:15:04.918Z,61.24
2022-12-18T22:17:31.952Z,61.41
2022-12-18T22:19:58.712Z,61.01
2022-12-18T22:22:25.576Z,61.44
2022-12-18T22:24:52.387Z,61.09
2022-12-18T22:27:19.144Z,61.27
2022-12-18T22:30:03.972Z,60.97
2022-12-18T22:32:35.993Z,61.29
2022-12-18T22:35:09.473Z,61.10
2022-12-18T22:37:39.619Z,61.29
2022-12-18T22:40:07.517Z,61.23
2022-12-18T22:42:35.291Z,61.02
2022-12-18T22:45:02.077Z,61.55
2022-12-18T22:47:30.351Z,61.59
2022-12-18T22:49:58.180Z,61.04
2022-12-18T22:52:25.372Z,61.09
2022-12-18T22:54:54.127Z,61.25
2022-12-18T22:57:22.773Z,61.31
2022-12-18T22:59:50.855Z,61.62
2022-12-18T23:02:18.891Z,61.24
2022-12-18T23:04:46.007Z,61.24
2022-12-18T23:07:12.792Z,61.26
2022-12-18T23:09:39.740Z,61.38
2022-12-18T23:12:07.203Z,61.10
2022-12-18T23:14:34.098Z,61.01
2022-12-18T23:17:00.891Z,61.11
2022-12-18T23:19:27.676Z,61.21
2022-12-18T23:21:57.130Z,61.39
2022-12-18T23:24:28.938Z,61.40
2022-12-18T23:26:59.422Z,61.12
2022-12-18T23:29:26.194Z,61.10
2022-12-18T23:31:53.032Z,61.42
2022-12-18T23:34:19.807Z,61.23
2022-12-18T23:36:47.484Z,61.39
2022-12-18T23:39:29.103Z,61.50
2022-12-18T23:42:00.446Z,61.71
2022-12-18T23:44:27.625Z,61.79
2022-12-18T23:46:55.113Z,61.55
2022-12-18T23:49:22.144Z,61.84
2022-12-18T23:51:49.149Z,61.43
2022-12-18T23:54:16.221Z,62.07
2022-12-18T23:56:43.188Z,62.00
2022-12-18T23:59:10.222Z,61.85
